sensor_id;sensor_type;location;lat;lon;timestamp;temperature;humidity
33715;DHT22;20043;50.998;4.754;2023-04-24T00:00:51;10.40;99.90
33715;DHT22;20043;50.998;4.754;2023-04-24T00:03:17;10.40;99.90
33715;DHT22;20043;50.998;4.754;2023-04-24T00:05:46;10.40;99.90
33715;DHT22;20043;50.998;4.754;2023-04-24T00:08:12;10.40;99.90
33715;DHT22;20043;50.998;4.754;2023-04-24T00:10:37;10.50;99.90
33715;DHT22;20043;50.998;4.754;2023-04-24T00:13:03;10.60;99.90
33715;DHT22;20043;50.998;4.754;2023-04-24T00:15:29;10.60;99.90
33715;DHT22;20043;50.998;4.754;2023-04-24T00:17:54;10.60;99.90
33715;DHT22;20043;50.998;4.754;2023-04-24T00:20:20;10.50;99.90
33715;DHT22;20043;50.998;4.754;2023-04-24T00:22:46;10.50;99.90
33715;DHT22;20043;50.998;4.754;2023-04-24T00:25:12;10.60;99.90
33715;DHT22;20043;50.998;4.754;2023-04-24T00:27:37;10.60;99.90
33715;DHT22;20043;50.998;4.754;2023-04-24T00:30:04;10.50;99.90
33715;DHT22;20043;50.998;4.754;2023-04-24T00:32:30;10.50;99.90
33715;DHT22;20043;50.998;4.754;2023-04-24T00:35:02;10.40;99.90
33715;DHT22;20043;50.998;4.754;2023-04-24T00:37:27;10.40;99.90
33715;DHT22;20043;50.998;4.754;2023-04-24T00:39:54;10.40;99.90
33715;DHT22;20043;50.998;4.754;2023-04-24T00:42:20;10.50;99.90
33715;DHT22;20043;50.998;4.754;2023-04-24T00:44:45;10.60;99.90
33715;DHT22;20043;50.998;4.754;2023-04-24T00:47:12;10.40;99.90
33715;DHT22;20043;50.998;4.754;2023-04-24T00:49:38;10.40;99.90
33715;DHT22;20043;50.998;4.754;2023-04-24T00:52:04;10.50;99.90
33715;DHT22;20043;50.998;4.754;2023-04-24T00:54:33;10.50;99.90
33715;DHT22;20043;50.998;4.754;2023-04-24T00:56:58;10.60;99.90
33715;DHT22;20043;50.998;4.754;2023-04-24T00:59:24;10.60;99.90
33715;DHT22;20043;50.998;4.754;2023-04-24T01:01:50;10.60;99.90
33715;DHT22;20043;50.998;4.754;2023-04-24T01:04:17;10.60;99.90
33715;DHT22;20043;50.998;4.754;2023-04-24T01:06:44;10.60;99.90
33715;DHT22;20043;50.998;4.754;2023-04-24T01:09:11;10.50;99.90
33715;DHT22;20043;50.998;4.754;2023-04-24T01:11:38;10.50;99.90
33715;DHT22;20043;50.998;4.754;2023-04-24T01:14:03;10.40;99.90
33715;DHT22;20043;50.998;4.754;2023-04-24T01:16:29;10.40;99.90
33715;DHT22;20043;50.998;4.754;2023-04-24T01:18:55;10.40;99.90
33715;DHT22;20043;50.998;4.754;2023-04-24T01:21:21;10.40;99.90
33715;DHT22;20043;50.998;4.754;2023-04-24T01:23:49;10.30;99.90
33715;DHT22;20043;50.998;4.754;2023-04-24T01:26:16;10.30;99.90
33715;DHT22;20043;50.998;4.754;2023-04-24T01:28:42;10.30;99.90
33715;DHT22;20043;50.998;4.754;2023-04-24T01:31:07;10.40;99.90
33715;DHT22;20043;50.998;4.754;2023-04-24T01:33:33;10.40;99.90
33715;DHT22;20043;50.998;4.754;2023-04-24T01:35:59;10.40;99.90
33715;DHT22;20043;50.998;4.754;2023-04-24T01:38:25;10.30;99.90
33715;DHT22;20043;50.998;4.754;2023-04-24T01:40:51;10.30;99.90
33715;DHT22;20043;50.998;4.754;2023-04-24T01:43:17;10.30;99.90
33715;DHT22;20043;50.998;4.754;2023-04-24T01:45:43;10.20;99.90
33715;DHT22;20043;50.998;4.754;2023-04-24T01:48:09;10.20;99.90
33715;DHT22;20043;50.998;4.754;2023-04-24T01:50:35;10.20;99.90
33715;DHT22;20043;50.998;4.754;2023-04-24T01:53:00;10.30;99.90
33715;DHT22;20043;50.998;4.754;2023-04-24T01:55:26;10.40;99.90
33715;DHT22;20043;50.998;4.754;2023-04-24T01:57:53;10.30;99.90
33715;DHT22;20043;50.998;4.754;2023-04-24T02:00:20;10.40;99.90
33715;DHT22;20043;50.998;4.754;2023-04-24T02:02:46;10.30;99.90
33715;DHT22;20043;50.998;4.754;2023-04-24T02:05:12;10.30;99.90
33715;DHT22;20043;50.998;4.754;2023-04-24T02:07:37;10.20;99.90
33715;DHT22;20043;50.998;4.754;2023-04-24T02:10:03;10.20;99.90
33715;DHT22;20043;50.998;4.754;2023-04-24T02:12:30;10.20;99.90
33715;DHT22;20043;50.998;4.754;2023-04-24T02:14:55;10.20;99.90
33715;DHT22;20043;50.998;4.754;2023-04-24T02:17:21;10.20;99.90
33715;DHT22;20043;50.998;4.754;2023-04-24T02:19:47;10.20;99.90
33715;DHT22;20043;50.998;4.754;2023-04-24T02:22:13;10.20;99.90
33715;DHT22;20043;50.998;4.754;2023-04-24T02:24:39;10.10;99.90
33715;DHT22;20043;50.998;4.754;2023-04-24T02:27:05;10.10;99.90
33715;DHT22;20043;50.998;4.754;2023-04-24T02:29:31;10.10;99.90
33715;DHT22;20043;50.998;4.754;2023-04-24T02:31:56;10.10;99.90
33715;DHT22;20043;50.998;4.754;2023-04-24T02:34:23;10.10;99.90
33715;DHT22;20043;50.998;4.754;2023-04-24T02:36:48;10.10;99.90
33715;DHT22;20043;50.998;4.754;2023-04-24T02:39:15;10.10;99.90
33715;DHT22;20043;50.998;4.754;2023-04-24T02:41:42;10.00;99.90
33715;DHT22;20043;50.998;4.754;2023-04-24T02:44:08;10.00;99.90
33715;DHT22;20043;50.998;4.754;2023-04-24T02:46:34;10.00;99.90
33715;DHT22;20043;50.998;4.754;2023-04-24T02:48:59;9.90;99.90
33715;DHT22;20043;50.998;4.754;2023-04-24T02:51:25;9.90;99.90
33715;DHT22;20043;50.998;4.754;2023-04-24T02:53:52;9.90;99.90
33715;DHT22;20043;50.998;4.754;2023-04-24T02:56:17;9.90;99.90
33715;DHT22;20043;50.998;4.754;2023-04-24T02:58:43;9.90;99.90
33715;DHT22;20043;50.998;4.754;2023-04-24T03:01:09;9.80;99.90
33715;DHT22;20043;50.998;4.754;2023-04-24T03:03:38;9.70;99.90
33715;DHT22;20043;50.998;4.754;2023-04-24T03:06:04;9.70;99.90
33715;DHT22;20043;50.998;4.754;2023-04-24T03:08:31;9.70;99.90
33715;DHT22;20043;50.998;4.754;2023-04-24T03:10:57;9.70;99.90
33715;DHT22;20043;50.998;4.754;2023-04-24T03:13:23;9.70;99.90
33715;DHT22;20043;50.998;4.754;2023-04-24T03:15:49;9.80;99.90
33715;DHT22;20043;50.998;4.754;2023-04-24T03:18:14;9.80;99.90
33715;DHT22;20043;50.998;4.754;2023-04-24T03:20:40;9.80;99.90
33715;DHT22;20043;50.998;4.754;2023-04-24T03:23:06;9.80;99.90
33715;DHT22;20043;50.998;4.754;2023-04-24T03:25:31;9.70;99.90
33715;DHT22;20043;50.998;4.754;2023-04-24T03:27:57;9.80;99.90
33715;DHT22;20043;50.998;4.754;2023-04-24T03:30:22;9.70;99.90
33715;DHT22;20043;50.998;4.754;2023-04-24T03:32:48;9.70;99.90
33715;DHT22;20043;50.998;4.754;2023-04-24T03:35:14;9.70;99.90
33715;DHT22;20043;50.998;4.754;2023-04-24T03:37:39;9.60;99.90
33715;DHT22;20043;50.998;4.754;2023-04-24T03:40:06;9.60;99.90
33715;DHT22;20043;50.998;4.754;2023-04-24T03:42:32;9.60;99.90
33715;DHT22;20043;50.998;4.754;2023-04-24T03:44:58;9.70;99.90
33715;DHT22;20043;50.998;4.754;2023-04-24T03:47:23;9.70;99.90
33715;DHT22;20043;50.998;4.754;2023-04-24T03:49:49;9.80;99.90
33715;DHT22;20043;50.998;4.754;2023-04-24T03:52:15;9.80;99.90
33715;DHT22;20043;50.998;4.754;2023-04-24T03:54:41;9.80;99.90
33715;DHT22;20043;50.998;4.754;2023-04-24T03:57:06;9.80;99.90
33715;DHT22;20043;50.998;4.754;2023-04-24T03:59:32;9.90;99.90
33715;DHT22;20043;50.998;4.754;2023-04-24T04:01:57;9.80;99.90
33715;DHT22;20043;50.998;4.754;2023-04-24T04:04:23;9.90;99.90
33715;DHT22;20043;50.998;4.754;2023-04-24T04:06:48;9.80;99.90
33715;DHT22;20043;50.998;4.754;2023-04-24T04:09:14;9.80;99.90
33715;DHT22;20043;50.998;4.754;2023-04-24T04:11:40;9.80;99.90
33715;DHT22;20043;50.998;4.754;2023-04-24T04:14:06;9.80;99.90
33715;DHT22;20043;50.998;4.754;2023-04-24T04:16:31;9.80;99.90
33715;DHT22;20043;50.998;4.754;2023-04-24T04:18:57;9.70;99.90
33715;DHT22;20043;50.998;4.754;2023-04-24T04:21:23;9.80;99.90
33715;DHT22;20043;50.998;4.754;2023-04-24T04:23:48;9.70;99.90
33715;DHT22;20043;50.998;4.754;2023-04-24T04:26:14;9.80;99.90
33715;DHT22;20043;50.998;4.754;2023-04-24T04:28:39;9.80;99.90
33715;DHT22;20043;50.998;4.754;2023-04-24T04:31:06;10.00;99.90
33715;DHT22;20043;50.998;4.754;2023-04-24T04:33:33;10.00;99.90
33715;DHT22;20043;50.998;4.754;2023-04-24T04:35:59;10.00;99.90
33715;DHT22;20043;50.998;4.754;2023-04-24T04:38:25;10.00;99.90
33715;DHT22;20043;50.998;4.754;2023-04-24T04:40:55;10.00;99.90
33715;DHT22;20043;50.998;4.754;2023-04-24T04:43:23;10.10;99.90
33715;DHT22;20043;50.998;4.754;2023-04-24T04:45:49;10.00;99.90
33715;DHT22;20043;50.998;4.754;2023-04-24T04:48:16;10.20;99.90
33715;DHT22;20043;50.998;4.754;2023-04-24T04:50:43;10.10;99.90
33715;DHT22;20043;50.998;4.754;2023-04-24T04:53:08;10.10;99.90
33715;DHT22;20043;50.998;4.754;2023-04-24T04:55:34;10.10;99.90
33715;DHT22;20043;50.998;4.754;2023-04-24T04:58:00;10.00;99.90
33715;DHT22;20043;50.998;4.754;2023-04-24T05:00:26;9.90;99.90
33715;DHT22;20043;50.998;4.754;2023-04-24T05:02:52;9.90;99.90
33715;DHT22;20043;50.998;4.754;2023-04-24T05:05:18;9.80;99.90
33715;DHT22;20043;50.998;4.754;2023-04-24T05:07:44;9.70;99.90
33715;DHT22;20043;50.998;4.754;2023-04-24T05:10:10;9.70;99.90
33715;DHT22;20043;50.998;4.754;2023-04-24T05:12:36;9.70;99.90
33715;DHT22;20043;50.998;4.754;2023-04-24T05:15:02;9.70;99.90
33715;DHT22;20043;50.998;4.754;2023-04-24T05:17:28;9.60;99.90
33715;DHT22;20043;50.998;4.754;2023-04-24T05:19:54;9.50;99.90
33715;DHT22;20043;50.998;4.754;2023-04-24T05:22:19;9.50;99.90
33715;DHT22;20043;50.998;4.754;2023-04-24T05:24:47;9.60;99.90
33715;DHT22;20043;50.998;4.754;2023-04-24T05:27:13;9.70;99.90
33715;DHT22;20043;50.998;4.754;2023-04-24T05:29:39;9.70;99.90
33715;DHT22;20043;50.998;4.754;2023-04-24T05:32:05;9.70;99.90
33715;DHT22;20043;50.998;4.754;2023-04-24T05:34:32;9.70;99.90
33715;DHT22;20043;50.998;4.754;2023-04-24T05:36:57;9.70;99.90
33715;DHT22;20043;50.998;4.754;2023-04-24T05:39:23;9.60;99.90
33715;DHT22;20043;50.998;4.754;2023-04-24T05:41:50;9.70;99.90
33715;DHT22;20043;50.998;4.754;2023-04-24T05:44:16;9.70;99.90
33715;DHT22;20043;50.998;4.754;2023-04-24T05:46:41;9.70;99.90
33715;DHT22;20043;50.998;4.754;2023-04-24T05:49:07;9.70;99.90
33715;DHT22;20043;50.998;4.754;2023-04-24T05:51:33;9.70;99.90
33715;DHT22;20043;50.998;4.754;2023-04-24T05:53:58;9.70;99.90
33715;DHT22;20043;50.998;4.754;2023-04-24T05:56:24;9.70;99.90
33715;DHT22;20043;50.998;4.754;2023-04-24T05:58:49;9.70;99.90
33715;DHT22;20043;50.998;4.754;2023-04-24T06:01:15;9.70;99.90
33715;DHT22;20043;50.998;4.754;2023-04-24T06:03:41;9.80;99.90
33715;DHT22;20043;50.998;4.754;2023-04-24T06:06:07;9.80;99.90
33715;DHT22;20043;50.998;4.754;2023-04-24T06:08:34;9.90;99.90
33715;DHT22;20043;50.998;4.754;2023-04-24T06:10:59;9.80;99.90
33715;DHT22;20043;50.998;4.754;2023-04-24T06:13:25;9.90;99.90
33715;DHT22;20043;50.998;4.754;2023-04-24T06:15:52;9.80;99.90
33715;DHT22;20043;50.998;4.754;2023-04-24T06:18:18;9.70;99.90
33715;DHT22;20043;50.998;4.754;2023-04-24T06:20:45;9.80;99.90
33715;DHT22;20043;50.998;4.754;2023-04-24T06:23:11;9.90;99.90
33715;DHT22;20043;50.998;4.754;2023-04-24T06:25:37;9.70;99.90
33715;DHT22;20043;50.998;4.754;2023-04-24T06:28:03;9.60;99.90
33715;DHT22;20043;50.998;4.754;2023-04-24T06:30:29;9.60;99.90
33715;DHT22;20043;50.998;4.754;2023-04-24T06:32:54;9.60;99.90
33715;DHT22;20043;50.998;4.754;2023-04-24T06:35:20;9.70;99.90
33715;DHT22;20043;50.998;4.754;2023-04-24T06:37:46;9.70;99.90
33715;DHT22;20043;50.998;4.754;2023-04-24T06:40:11;9.60;99.90
33715;DHT22;20043;50.998;4.754;2023-04-24T06:42:37;9.70;99.90
33715;DHT22;20043;50.998;4.754;2023-04-24T06:45:03;9.70;99.90
33715;DHT22;20043;50.998;4.754;2023-04-24T06:47:29;9.80;99.90
33715;DHT22;20043;50.998;4.754;2023-04-24T06:49:55;9.80;99.90
33715;DHT22;20043;50.998;4.754;2023-04-24T06:52:21;9.80;99.90
33715;DHT22;20043;50.998;4.754;2023-04-24T06:54:46;9.70;99.90
33715;DHT22;20043;50.998;4.754;2023-04-24T06:57:12;9.60;99.90
33715;DHT22;20043;50.998;4.754;2023-04-24T06:59:38;9.70;99.90
33715;DHT22;20043;50.998;4.754;2023-04-24T07:02:04;9.60;99.90
33715;DHT22;20043;50.998;4.754;2023-04-24T07:04:30;9.60;99.90
33715;DHT22;20043;50.998;4.754;2023-04-24T07:06:56;9.60;99.90
33715;DHT22;20043;50.998;4.754;2023-04-24T07:09:23;9.70;99.90
33715;DHT22;20043;50.998;4.754;2023-04-24T07:11:51;9.70;99.90
33715;DHT22;20043;50.998;4.754;2023-04-24T07:14:17;9.60;99.90
33715;DHT22;20043;50.998;4.754;2023-04-24T07:16:42;9.50;99.90
33715;DHT22;20043;50.998;4.754;2023-04-24T07:19:09;9.60;99.90
33715;DHT22;20043;50.998;4.754;2023-04-24T07:21:34;9.50;99.90
33715;DHT22;20043;50.998;4.754;2023-04-24T07:24:00;9.50;99.90
33715;DHT22;20043;50.998;4.754;2023-04-24T07:26:27;9.50;99.90
33715;DHT22;20043;50.998;4.754;2023-04-24T07:28:53;9.60;99.90
33715;DHT22;20043;50.998;4.754;2023-04-24T07:31:20;9.60;99.90
33715;DHT22;20043;50.998;4.754;2023-04-24T07:33:46;9.60;99.90
33715;DHT22;20043;50.998;4.754;2023-04-24T07:36:12;9.70;99.90
33715;DHT22;20043;50.998;4.754;2023-04-24T07:38:42;9.80;99.90
33715;DHT22;20043;50.998;4.754;2023-04-24T07:41:08;9.90;99.90
33715;DHT22;20043;50.998;4.754;2023-04-24T07:43:34;9.90;99.90
33715;DHT22;20043;50.998;4.754;2023-04-24T07:46:00;10.00;99.90
33715;DHT22;20043;50.998;4.754;2023-04-24T07:48:26;10.00;99.90
33715;DHT22;20043;50.998;4.754;2023-04-24T07:50:52;10.20;99.90
33715;DHT22;20043;50.998;4.754;2023-04-24T07:53:18;10.30;99.90
33715;DHT22;20043;50.998;4.754;2023-04-24T07:55:43;10.30;99.90
33715;DHT22;20043;50.998;4.754;2023-04-24T07:58:09;10.50;99.90
33715;DHT22;20043;50.998;4.754;2023-04-24T08:00:42;10.50;99.90
33715;DHT22;20043;50.998;4.754;2023-04-24T08:03:07;10.40;99.90
33715;DHT22;20043;50.998;4.754;2023-04-24T08:05:33;10.50;99.90
33715;DHT22;20043;50.998;4.754;2023-04-24T08:07:59;10.50;99.90
33715;DHT22;20043;50.998;4.754;2023-04-24T08:10:25;10.60;99.90
33715;DHT22;20043;50.998;4.754;2023-04-24T08:12:51;10.60;99.90
33715;DHT22;20043;50.998;4.754;2023-04-24T08:15:17;10.70;99.90
33715;DHT22;20043;50.998;4.754;2023-04-24T08:17:42;10.70;99.90
33715;DHT22;20043;50.998;4.754;2023-04-24T08:20:09;10.70;99.90
33715;DHT22;20043;50.998;4.754;2023-04-24T08:22:39;10.60;99.90
33715;DHT22;20043;50.998;4.754;2023-04-24T08:25:06;10.40;99.90
33715;DHT22;20043;50.998;4.754;2023-04-24T08:27:32;10.30;99.90
33715;DHT22;20043;50.998;4.754;2023-04-24T08:29:57;10.20;99.90
33715;DHT22;20043;50.998;4.754;2023-04-24T08:32:25;10.20;99.90
33715;DHT22;20043;50.998;4.754;2023-04-24T08:34:53;10.40;99.90
33715;DHT22;20043;50.998;4.754;2023-04-24T08:37:19;10.60;99.90
33715;DHT22;20043;50.998;4.754;2023-04-24T08:39:44;10.90;99.90
33715;DHT22;20043;50.998;4.754;2023-04-24T08:42:11;11.00;99.90
33715;DHT22;20043;50.998;4.754;2023-04-24T08:44:38;11.30;99.90
33715;DHT22;20043;50.998;4.754;2023-04-24T08:47:04;11.40;99.90
33715;DHT22;20043;50.998;4.754;2023-04-24T08:49:31;11.50;99.90
33715;DHT22;20043;50.998;4.754;2023-04-24T08:51:56;11.60;99.90
33715;DHT22;20043;50.998;4.754;2023-04-24T08:54:22;11.60;99.90
33715;DHT22;20043;50.998;4.754;2023-04-24T08:56:49;11.70;99.90
33715;DHT22;20043;50.998;4.754;2023-04-24T08:59:15;11.80;99.90
33715;DHT22;20043;50.998;4.754;2023-04-24T09:01:41;11.80;99.90
33715;DHT22;20043;50.998;4.754;2023-04-24T09:04:09;11.80;99.90
33715;DHT22;20043;50.998;4.754;2023-04-24T09:06:38;12.00;99.90
33715;DHT22;20043;50.998;4.754;2023-04-24T09:09:04;12.10;99.90
33715;DHT22;20043;50.998;4.754;2023-04-24T09:11:31;12.20;99.90
33715;DHT22;20043;50.998;4.754;2023-04-24T09:13:58;12.10;99.90
33715;DHT22;20043;50.998;4.754;2023-04-24T09:16:25;12.20;99.90
33715;DHT22;20043;50.998;4.754;2023-04-24T09:18:52;12.10;99.90
33715;DHT22;20043;50.998;4.754;2023-04-24T09:21:19;12.00;99.90
33715;DHT22;20043;50.998;4.754;2023-04-24T09:23:45;11.90;99.90
33715;DHT22;20043;50.998;4.754;2023-04-24T09:26:11;11.60;99.90
33715;DHT22;20043;50.998;4.754;2023-04-24T09:28:38;11.60;99.90
33715;DHT22;20043;50.998;4.754;2023-04-24T09:31:15;11.40;99.90
33715;DHT22;20043;50.998;4.754;2023-04-24T09:34:01;11.40;99.90
33715;DHT22;20043;50.998;4.754;2023-04-24T09:36:36;11.60;99.90
33715;DHT22;20043;50.998;4.754;2023-04-24T09:39:04;11.70;99.90
33715;DHT22;20043;50.998;4.754;2023-04-24T09:41:32;11.80;99.90
33715;DHT22;20043;50.998;4.754;2023-04-24T09:44:15;11.80;99.90
33715;DHT22;20043;50.998;4.754;2023-04-24T09:46:45;12.00;99.90
33715;DHT22;20043;50.998;4.754;2023-04-24T09:49:15;12.20;99.90
33715;DHT22;20043;50.998;4.754;2023-04-24T09:51:41;12.40;99.90
33715;DHT22;20043;50.998;4.754;2023-04-24T09:54:16;12.60;99.90
33715;DHT22;20043;50.998;4.754;2023-04-24T09:56:46;12.90;99.90
33715;DHT22;20043;50.998;4.754;2023-04-24T09:59:14;13.00;99.90
33715;DHT22;20043;50.998;4.754;2023-04-24T10:01:41;13.10;99.90
33715;DHT22;20043;50.998;4.754;2023-04-24T10:06:47;12.90;99.90
33715;DHT22;20043;50.998;4.754;2023-04-24T10:09:15;12.70;99.90
33715;DHT22;20043;50.998;4.754;2023-04-24T10:11:46;12.70;99.90
33715;DHT22;20043;50.998;4.754;2023-04-24T10:14:18;12.50;99.90
33715;DHT22;20043;50.998;4.754;2023-04-24T10:16:44;12.60;99.90
33715;DHT22;20043;50.998;4.754;2023-04-24T10:19:12;12.80;99.90
33715;DHT22;20043;50.998;4.754;2023-04-24T10:21:40;12.90;99.90
33715;DHT22;20043;50.998;4.754;2023-04-24T10:24:08;12.70;99.90
33715;DHT22;20043;50.998;4.754;2023-04-24T10:26:34;12.60;99.90
33715;DHT22;20043;50.998;4.754;2023-04-24T10:29:01;12.50;99.90
33715;DHT22;20043;50.998;4.754;2023-04-24T10:31:29;12.30;99.90
33715;DHT22;20043;50.998;4.754;2023-04-24T10:33:56;12.20;99.90
33715;DHT22;20043;50.998;4.754;2023-04-24T10:36:24;12.10;99.90
33715;DHT22;20043;50.998;4.754;2023-04-24T10:38:53;12.10;99.90
33715;DHT22;20043;50.998;4.754;2023-04-24T10:41:21;12.20;99.90
33715;DHT22;20043;50.998;4.754;2023-04-24T10:44:03;12.40;99.90
33715;DHT22;20043;50.998;4.754;2023-04-24T10:46:30;12.50;99.90
33715;DHT22;20043;50.998;4.754;2023-04-24T10:48:56;12.40;99.90
33715;DHT22;20043;50.998;4.754;2023-04-24T10:51:24;12.50;99.90
33715;DHT22;20043;50.998;4.754;2023-04-24T10:53:51;12.50;99.90
33715;DHT22;20043;50.998;4.754;2023-04-24T10:56:17;12.70;99.90
33715;DHT22;20043;50.998;4.754;2023-04-24T10:58:53;12.80;99.90
33715;DHT22;20043;50.998;4.754;2023-04-24T11:01:27;12.90;99.90
33715;DHT22;20043;50.998;4.754;2023-04-24T11:03:58;13.00;99.90
33715;DHT22;20043;50.998;4.754;2023-04-24T11:06:34;13.00;99.90
33715;DHT22;20043;50.998;4.754;2023-04-24T11:09:08;12.90;99.90
33715;DHT22;20043;50.998;4.754;2023-04-24T11:11:35;12.80;99.90
33715;DHT22;20043;50.998;4.754;2023-04-24T11:14:08;12.70;99.90
33715;DHT22;20043;50.998;4.754;2023-04-24T11:26:56;13.70;99.90
33715;DHT22;20043;50.998;4.754;2023-04-24T11:29:24;13.90;99.90
33715;DHT22;20043;50.998;4.754;2023-04-24T11:34:41;14.30;99.90
33715;DHT22;20043;50.998;4.754;2023-04-24T11:37:10;14.20;99.90
33715;DHT22;20043;50.998;4.754;2023-04-24T11:39:36;14.00;99.90
33715;DHT22;20043;50.998;4.754;2023-04-24T11:42:03;13.70;99.90
33715;DHT22;20043;50.998;4.754;2023-04-24T11:44:31;13.50;99.90
33715;DHT22;20043;50.998;4.754;2023-04-24T11:46:58;13.40;99.90
33715;DHT22;20043;50.998;4.754;2023-04-24T11:49:24;13.40;99.90
33715;DHT22;20043;50.998;4.754;2023-04-24T11:51:50;13.30;99.90
33715;DHT22;20043;50.998;4.754;2023-04-24T11:54:16;13.40;99.90
33715;DHT22;20043;50.998;4.754;2023-04-24T11:56:46;13.40;99.90
33715;DHT22;20043;50.998;4.754;2023-04-24T11:59:12;13.40;99.90
33715;DHT22;20043;50.998;4.754;2023-04-24T12:01:48;13.50;99.90
33715;DHT22;20043;50.998;4.754;2023-04-24T12:04:15;13.50;99.90
33715;DHT22;20043;50.998;4.754;2023-04-24T12:07:02;13.50;99.90
33715;DHT22;20043;50.998;4.754;2023-04-24T12:09:28;13.50;99.90
33715;DHT22;20043;50.998;4.754;2023-04-24T12:11:56;13.40;99.90
33715;DHT22;20043;50.998;4.754;2023-04-24T12:14:22;13.30;99.90
33715;DHT22;20043;50.998;4.754;2023-04-24T12:16:49;13.30;99.90
33715;DHT22;20043;50.998;4.754;2023-04-24T12:19:22;13.30;99.90
33715;DHT22;20043;50.998;4.754;2023-04-24T12:22:06;13.40;99.90
33715;DHT22;20043;50.998;4.754;2023-04-24T12:24:32;13.40;99.90
33715;DHT22;20043;50.998;4.754;2023-04-24T12:26:58;13.30;99.90
33715;DHT22;20043;50.998;4.754;2023-04-24T12:29:24;13.40;99.90
33715;DHT22;20043;50.998;4.754;2023-04-24T12:31:53;13.30;99.90
33715;DHT22;20043;50.998;4.754;2023-04-24T12:34:19;13.30;99.90
33715;DHT22;20043;50.998;4.754;2023-04-24T12:36:46;13.40;99.90
33715;DHT22;20043;50.998;4.754;2023-04-24T12:39:19;13.60;99.90
33715;DHT22;20043;50.998;4.754;2023-04-24T12:42:11;13.80;99.90
33715;DHT22;20043;50.998;4.754;2023-04-24T12:44:37;13.80;99.90
33715;DHT22;20043;50.998;4.754;2023-04-24T12:47:02;14.00;99.90
33715;DHT22;20043;50.998;4.754;2023-04-24T12:49:30;14.10;99.90
33715;DHT22;20043;50.998;4.754;2023-04-24T12:51:56;14.20;99.90
33715;DHT22;20043;50.998;4.754;2023-04-24T12:54:22;14.20;99.90
33715;DHT22;20043;50.998;4.754;2023-04-24T12:56:47;14.10;99.90
33715;DHT22;20043;50.998;4.754;2023-04-24T12:59:13;14.00;99.90
33715;DHT22;20043;50.998;4.754;2023-04-24T13:01:39;14.00;99.90
33715;DHT22;20043;50.998;4.754;2023-04-24T13:04:05;13.90;99.90
33715;DHT22;20043;50.998;4.754;2023-04-24T13:06:31;14.10;99.90
33715;DHT22;20043;50.998;4.754;2023-04-24T13:08:57;14.00;99.90
33715;DHT22;20043;50.998;4.754;2023-04-24T13:11:23;14.10;99.90
33715;DHT22;20043;50.998;4.754;2023-04-24T13:13:50;14.20;99.90
33715;DHT22;20043;50.998;4.754;2023-04-24T13:16:15;14.50;99.90
33715;DHT22;20043;50.998;4.754;2023-04-24T13:18:41;14.70;99.90
33715;DHT22;20043;50.998;4.754;2023-04-24T13:21:07;14.90;99.90
33715;DHT22;20043;50.998;4.754;2023-04-24T13:23:32;15.00;99.90
33715;DHT22;20043;50.998;4.754;2023-04-24T13:25:58;15.00;99.90
33715;DHT22;20043;50.998;4.754;2023-04-24T13:28:25;14.90;99.90
33715;DHT22;20043;50.998;4.754;2023-04-24T13:30:51;14.80;99.90
33715;DHT22;20043;50.998;4.754;2023-04-24T13:33:16;14.80;99.90
33715;DHT22;20043;50.998;4.754;2023-04-24T13:35:42;14.60;99.90
33715;DHT22;20043;50.998;4.754;2023-04-24T13:38:08;14.40;99.90
33715;DHT22;20043;50.998;4.754;2023-04-24T13:40:33;14.40;99.90
33715;DHT22;20043;50.998;4.754;2023-04-24T13:42:59;14.60;99.90
33715;DHT22;20043;50.998;4.754;2023-04-24T13:45:25;14.70;99.90
33715;DHT22;20043;50.998;4.754;2023-04-24T13:47:51;14.60;99.90
33715;DHT22;20043;50.998;4.754;2023-04-24T13:50:19;14.50;99.90
33715;DHT22;20043;50.998;4.754;2023-04-24T13:52:44;14.40;99.90
33715;DHT22;20043;50.998;4.754;2023-04-24T13:55:10;14.50;99.90
33715;DHT22;20043;50.998;4.754;2023-04-24T13:57:36;14.70;99.90
33715;DHT22;20043;50.998;4.754;2023-04-24T14:00:02;15.00;99.90
33715;DHT22;20043;50.998;4.754;2023-04-24T14:02:29;14.80;99.90
33715;DHT22;20043;50.998;4.754;2023-04-24T14:04:55;14.60;99.90
33715;DHT22;20043;50.998;4.754;2023-04-24T14:07:21;14.70;99.90
33715;DHT22;20043;50.998;4.754;2023-04-24T14:09:47;14.70;99.90
33715;DHT22;20043;50.998;4.754;2023-04-24T14:12:13;14.70;99.90
33715;DHT22;20043;50.998;4.754;2023-04-24T14:14:47;14.60;99.90
33715;DHT22;20043;50.998;4.754;2023-04-24T14:17:14;14.70;99.90
33715;DHT22;20043;50.998;4.754;2023-04-24T14:19:46;14.70;99.90
33715;DHT22;20043;50.998;4.754;2023-04-24T14:22:21;14.70;99.90
33715;DHT22;20043;50.998;4.754;2023-04-24T14:24:47;14.80;99.90
33715;DHT22;20043;50.998;4.754;2023-04-24T14:27:12;14.80;99.90
33715;DHT22;20043;50.998;4.754;2023-04-24T14:29:38;15.00;99.90
33715;DHT22;20043;50.998;4.754;2023-04-24T14:32:03;14.90;99.90
33715;DHT22;20043;50.998;4.754;2023-04-24T14:34:29;14.90;99.90
33715;DHT22;20043;50.998;4.754;2023-04-24T14:36:55;15.00;99.90
33715;DHT22;20043;50.998;4.754;2023-04-24T14:39:20;15.10;99.90
33715;DHT22;20043;50.998;4.754;2023-04-24T14:41:46;15.20;99.90
33715;DHT22;20043;50.998;4.754;2023-04-24T14:44:12;15.10;99.90
33715;DHT22;20043;50.998;4.754;2023-04-24T14:46:37;15.10;99.90
33715;DHT22;20043;50.998;4.754;2023-04-24T14:49:03;15.30;99.90
33715;DHT22;20043;50.998;4.754;2023-04-24T14:51:28;15.60;99.90
33715;DHT22;20043;50.998;4.754;2023-04-24T14:53:56;15.90;99.90
33715;DHT22;20043;50.998;4.754;2023-04-24T14:56:22;16.00;99.90
33715;DHT22;20043;50.998;4.754;2023-04-24T14:58:48;16.00;99.90
33715;DHT22;20043;50.998;4.754;2023-04-24T15:01:14;15.80;99.90
33715;DHT22;20043;50.998;4.754;2023-04-24T15:03:39;15.30;99.90
33715;DHT22;20043;50.998;4.754;2023-04-24T15:06:05;15.20;99.90
33715;DHT22;20043;50.998;4.754;2023-04-24T15:08:31;15.10;99.90
33715;DHT22;20043;50.998;4.754;2023-04-24T15:10:56;15.00;99.90
33715;DHT22;20043;50.998;4.754;2023-04-24T15:13:22;15.00;99.90
33715;DHT22;20043;50.998;4.754;2023-04-24T15:15:48;15.20;99.90
33715;DHT22;20043;50.998;4.754;2023-04-24T15:18:13;15.20;99.90
33715;DHT22;20043;50.998;4.754;2023-04-24T15:20:39;15.10;99.90
33715;DHT22;20043;50.998;4.754;2023-04-24T15:23:05;15.10;99.90
33715;DHT22;20043;50.998;4.754;2023-04-24T15:25:31;15.00;99.90
33715;DHT22;20043;50.998;4.754;2023-04-24T15:27:58;15.00;99.90
33715;DHT22;20043;50.998;4.754;2023-04-24T15:30:24;14.90;99.90
33715;DHT22;20043;50.998;4.754;2023-04-24T15:32:49;14.80;99.90
33715;DHT22;20043;50.998;4.754;2023-04-24T15:35:15;14.60;99.90
33715;DHT22;20043;50.998;4.754;2023-04-24T15:37:41;14.50;99.90
33715;DHT22;20043;50.998;4.754;2023-04-24T15:40:08;14.50;99.90
33715;DHT22;20043;50.998;4.754;2023-04-24T15:42:34;14.40;99.90
33715;DHT22;20043;50.998;4.754;2023-04-24T15:44:59;14.30;99.90
33715;DHT22;20043;50.998;4.754;2023-04-24T15:47:25;14.30;99.90